Long Beach, CA (90809)

11:53 PM PDT on August 30, 2014 (GMT -0700)
Long Beach Yacht Club | Change Station
CLOSE
Current Station
Personal Weather Station
Location: Long Beach, CA
Elevation: 11 ft
Nearby Weather Stations

Elev 11 ft 33.75 °N, 118.11 °W | Updated 3 minutes ago

Clear
Clear
69.2 °F
Feels Like 69.2 °F
N
7.0
Wind Variable Wind from SSW
Gusts 8.0 mph

Today
High -- | Low -- °F
--% Chance of Precip.
Yesterday
High -- | Low -- °F
Precip. -- in
6:24 AM 7:20 PM
Waxing Crescent, 28% visible
Pressure 29.77 in
Visibility 10.0 miles
Clouds Clear
Dew Point 68 °F
Humidity 94%
Rainfall 0.00 in
Snow Depth Not available.
UV 0 out of 12
Pollen 8.20 out of 12
Ozone Good
Flu Activity Not available.
METAR KLGB 310553Z 13005KT 10SM CLR 22/19 A2977 RMK AO2 SLP079 T02220189 10300 20222 51009

More Conditions Fewer Conditions

Pressure 29.77 in
Visibility 10.0 miles
Clouds Clear
Dew Point 68 °F
Humidity 94%
Rainfall 0.00 in
Snow Depth Not available.
UV 0 out of 12
Pollen 8.20 out of 12
Ozone Good
Flu Activity Not available.
METAR KLGB 310553Z 13005KT 10SM CLR 22/19 A2977 RMK AO2 SLP079 T02220189 10300 20222 51009

More Conditions Fewer Conditions

10-Day Weather Forecast

Almanac

Astronomy

Aug. 30, 2014 Rise Set
Actual Time 6:24 AM PDT 7:20 PM PDT
Civil Twilight 5:59 AM PDT 7:46 PM PDT
Nautical Twilight 5:29 AM PDT 8:16 PM PDT
Astronomical Twilight 4:58 AM PDT 8:47 PM PDT
Moon 11:01 AM PDT (8/30) 10:13 PM PDT (8/30)
Length of Visible Light 13h 46m
Length of Day
12h 55m
Tomorrow will be 2m 0s shorter.
Waxing Crescent, 28% of the Moon is Illuminated
Aug 31
Waxing Crescent
Sep 2
First Quarter
Sep 8
Full
Sep 15
Last Quarter
Sep 24
New

Community

WunderPhotos

Upload Photos

1,748,800 photos uploaded!

Nearby

Air Quality

  Air Quality AQ Index Pollutant
Yesterday Good
OZONE
Current Good
OZONE
Sunday Good
PM10
Sunday Moderate
OZONE
Sunday Good
CO
Sunday Good
NO2

Snow Depth

Station Depth Elevation
Leavitt Lake 0 in 9400 ft
Leavitt Meadows 1 in 7200 ft
Summit Meadow 0 in 9122 ft
Monitor Pass 0 in 8350 ft
Blue Lakes 0 in 8000 ft

Earthquake Activity

City Distance Mag. Time & Date
Malibu, California 56 miles 2.5 8:11 AM PDT
2014-08-30
Minimum magnitude displayed is 2.5.

Coastal Water Temperatures

Place Temperature
Santa Monica Pier 69.1 °F
Los Angeles, CA 66.0 °F
La Jolla, CA 75.0 °F

Nearby Weather Stations